createdAt,value
2018-03-04T00:00:04.140Z,25.20
2018-03-04T00:01:09.650Z,28.60
2018-03-04T00:02:15.176Z,25.40
2018-03-04T00:03:20.739Z,26.10
2018-03-04T00:04:26.214Z,27.70
2018-03-04T00:05:31.739Z,26.50
2018-03-04T00:06:37.278Z,28.30
2018-03-04T00:07:42.783Z,23.80
2018-03-04T00:08:48.312Z,25.30
2018-03-04T00:09:53.831Z,24.10
2018-03-04T00:10:59.350Z,29.20
2018-03-04T00:12:04.872Z,22.70
2018-03-04T00:13:10.402Z,26.00
2018-03-04T00:14:15.923Z,30.30
2018-03-04T00:15:21.444Z,25.30
2018-03-04T00:16:26.964Z,26.10
2018-03-04T00:17:32.485Z,27.70
2018-03-04T00:18:38.019Z,26.10
2018-03-04T00:19:43.534Z,28.00
2018-03-04T00:20:49.059Z,25.60
2018-03-04T00:21:54.585Z,30.30
2018-03-04T00:23:00.104Z,28.90
2018-03-04T00:24:05.625Z,25.50
2018-03-04T00:25:11.145Z,28.00
2018-03-04T00:26:16.666Z,29.20
2018-03-04T00:27:22.191Z,27.90
2018-03-04T00:28:27.717Z,24.50
2018-03-04T00:29:33.235Z,29.50
2018-03-04T00:30:38.757Z,24.90
2018-03-04T00:31:44.290Z,27.50
2018-03-04T00:32:49.803Z,24.70
2018-03-04T00:33:55.332Z,26.00
2018-03-04T00:35:00.846Z,26.60
2018-03-04T00:36:06.372Z,24.90
2018-03-04T00:37:11.892Z,29.80
2018-03-04T00:38:17.410Z,24.40
2018-03-04T00:39:22.933Z,28.70
2018-03-04T00:40:28.462Z,31.60
2018-03-04T00:41:33.980Z,24.30
2018-03-04T00:42:39.503Z,25.20
2018-03-04T00:43:45.027Z,29.40
2018-03-04T00:44:50.553Z,30.80
2018-03-04T00:45:56.068Z,26.70
2018-03-04T00:47:01.593Z,27.20
2018-03-04T00:48:07.125Z,27.10
2018-03-04T00:49:12.637Z,27.80
2018-03-04T00:50:18.162Z,33.50
2018-03-04T00:51:23.676Z,31.50
2018-03-04T00:52:29.202Z,28.50
2018-03-04T00:53:34.721Z,27.40
2018-03-04T00:54:40.253Z,24.30
2018-03-04T00:55:45.771Z,27.80
2018-03-04T00:56:51.287Z,27.40
2018-03-04T00:57:56.814Z,30.30
2018-03-04T00:59:02.330Z,28.20
2018-03-04T01:00:07.861Z,30.80
2018-03-04T01:01:13.375Z,26.20
2018-03-04T01:02:18.895Z,26.10
2018-03-04T01:03:24.428Z,25.50
2018-03-04T01:04:29.948Z,26.10
2018-03-04T01:05:35.466Z,33.10
2018-03-04T01:06:41.008Z,28.60
2018-03-04T01:07:46.514Z,29.70
2018-03-04T01:08:52.033Z,22.70
2018-03-04T01:09:57.557Z,25.40
2018-03-04T01:11:03.074Z,32.70
2018-03-04T01:12:08.601Z,33.10
2018-03-04T01:13:14.127Z,29.80
2018-03-04T01:14:19.643Z,28.00
2018-03-04T01:15:25.160Z,28.90
2018-03-04T01:16:30.683Z,32.60
2018-03-04T01:17:36.215Z,27.40
2018-03-04T01:18:41.739Z,28.80
2018-03-04T01:19:47.254Z,26.50
2018-03-04T01:20:52.773Z,28.80
2018-03-04T01:21:58.297Z,29.90
2018-03-04T01:23:03.814Z,26.50
2018-03-04T01:24:09.339Z,27.30
2018-03-04T01:25:14.861Z,25.30
2018-03-04T01:26:20.383Z,30.30
2018-03-04T01:27:25.907Z,30.80
2018-03-04T01:28:31.428Z,29.80
2018-03-04T01:29:36.948Z,28.30
2018-03-04T01:30:42.473Z,33.40
2018-03-04T01:31:47.996Z,27.10
2018-03-04T01:32:53.517Z,26.80
2018-03-04T01:33:59.035Z,28.90
2018-03-04T01:35:04.563Z,29.30
2018-03-04T01:36:10.083Z,30.40
2018-03-04T01:37:15.617Z,29.20
2018-03-04T01:38:21.126Z,26.00
2018-03-04T01:39:26.645Z,32.40
2018-03-04T01:40:32.176Z,30.50
2018-03-04T01:41:37.692Z,27.10
2018-03-04T01:42:43.212Z,27.50
2018-03-04T01:43:48.734Z,29.10
2018-03-04T01:44:54.291Z,28.30
2018-03-04T01:45:59.777Z,28.50
2018-03-04T01:47:05.296Z,25.40
2018-03-04T01:48:10.817Z,31.10
2018-03-04T01:49:16.344Z,25.00
2018-03-04T01:50:21.869Z,30.20
2018-03-04T01:51:27.384Z,28.90
2018-03-04T01:52:32.908Z,26.90
2018-03-04T01:53:38.428Z,29.50
2018-03-04T01:54:43.952Z,30.40
2018-03-04T01:55:49.479Z,32.20
2018-03-04T01:56:55.001Z,29.00
2018-03-04T01:58:00.517Z,31.30
2018-03-04T01:59:06.037Z,31.10
2018-03-04T02:00:11.567Z,26.00
2018-03-04T02:01:17.087Z,32.60
2018-03-04T02:02:22.608Z,29.80
2018-03-04T02:03:28.133Z,31.10
2018-03-04T02:04:33.661Z,28.60
2018-03-04T02:05:39.171Z,29.10
2018-03-04T02:06:44.700Z,27.30
2018-03-04T02:07:50.218Z,34.40
2018-03-04T02:08:55.734Z,24.40
2018-03-04T02:10:01.263Z,34.80
2018-03-04T02:11:06.786Z,29.00
2018-03-04T02:12:12.307Z,28.50
2018-03-04T02:13:17.826Z,25.70
2018-03-04T02:14:23.346Z,31.60
2018-03-04T02:15:28.868Z,26.30
2018-03-04T02:16:34.388Z,26.10
2018-03-04T02:17:39.912Z,29.50
2018-03-04T02:18:45.440Z,29.80
2018-03-04T02:19:50.954Z,30.10
2018-03-04T02:20:56.483Z,30.00
2018-03-04T02:22:02.004Z,31.30
2018-03-04T02:23:07.525Z,31.30
2018-03-04T02:24:13.046Z,32.10
2018-03-04T02:25:18.564Z,32.00
2018-03-04T02:26:24.088Z,33.80
2018-03-04T02:27:29.613Z,31.20
2018-03-04T02:28:35.131Z,30.00
2018-03-04T02:29:40.650Z,29.00
2018-03-04T02:30:46.179Z,28.40
2018-03-04T02:31:51.699Z,29.50
2018-03-04T02:32:57.218Z,31.30
2018-03-04T02:34:02.745Z,28.90
2018-03-04T02:35:08.262Z,31.80
2018-03-04T02:36:13.784Z,27.80
2018-03-04T02:37:19.310Z,27.50
2018-03-04T02:38:24.827Z,30.90
2018-03-04T02:39:30.356Z,30.00
2018-03-04T02:40:35.876Z,37.30
2018-03-04T02:41:41.396Z,36.10
2018-03-04T02:42:46.924Z,35.20
2018-03-04T02:43:52.441Z,30.40
2018-03-04T02:44:57.960Z,32.80
2018-03-04T02:46:03.480Z,32.60
2018-03-04T02:47:09.008Z,32.60
2018-03-04T02:48:14.530Z,33.70
2018-03-04T02:49:20.049Z,31.20
2018-03-04T02:50:25.568Z,33.50
2018-03-04T02:51:31.097Z,34.80
2018-03-04T02:52:36.613Z,30.90
2018-03-04T02:53:42.145Z,32.90
2018-03-04T02:54:47.655Z,32.90
2018-03-04T02:55:53.178Z,31.90
2018-03-04T02:56:58.705Z,33.50
2018-03-04T02:58:04.224Z,33.20
2018-03-04T02:59:09.752Z,31.70
2018-03-04T03:00:15.267Z,31.20
2018-03-04T03:01:20.796Z,38.60
2018-03-04T03:02:26.332Z,38.10
2018-03-04T03:03:31.845Z,29.80
2018-03-04T03:04:37.358Z,33.20
2018-03-04T03:05:42.877Z,34.40
2018-03-04T03:06:48.402Z,33.20
2018-03-04T03:07:53.939Z,37.20
2018-03-04T03:08:59.445Z,32.60
2018-03-04T03:10:04.966Z,35.50
2018-03-04T03:11:10.485Z,29.80
2018-03-04T03:12:16.011Z,32.80
2018-03-04T03:13:21.533Z,38.60
2018-03-04T03:14:27.052Z,31.90
2018-03-04T03:15:32.571Z,36.30
2018-03-04T03:16:38.095Z,36.00
2018-03-04T03:17:43.614Z,33.70
2018-03-04T03:18:49.135Z,36.30
2018-03-04T03:19:54.660Z,34.60
2018-03-04T03:21:00.180Z,30.00
2018-03-04T03:22:05.712Z,35.70
2018-03-04T03:23:11.226Z,33.10
2018-03-04T03:24:16.748Z,36.10
2018-03-04T03:25:22.273Z,34.10
2018-03-04T03:26:27.793Z,29.30
2018-03-04T03:27:33.308Z,32.20
2018-03-04T03:28:38.835Z,30.00
2018-03-04T03:29:44.356Z,32.80
2018-03-04T03:30:49.876Z,34.00
2018-03-04T03:31:55.403Z,34.30
2018-03-04T03:33:00.921Z,34.40
2018-03-04T03:34:06.442Z,36.90
2018-03-04T03:35:11.966Z,33.80
2018-03-04T03:36:17.485Z,38.10
2018-03-04T03:37:23.004Z,32.00
2018-03-04T03:38:28.528Z,34.10
2018-03-04T03:39:34.049Z,30.70
2018-03-04T03:40:39.571Z,40.00
2018-03-04T03:41:45.092Z,31.00
2018-03-04T03:42:50.614Z,34.90
2018-03-04T03:43:56.136Z,35.20
2018-03-04T03:45:01.666Z,34.00
2018-03-04T03:46:07.185Z,31.30
2018-03-04T03:47:12.696Z,33.60
2018-03-04T03:48:18.222Z,36.70
2018-03-04T03:49:23.750Z,38.10
2018-03-04T03:50:29.263Z,35.00
2018-03-04T03:51:34.783Z,34.80
2018-03-04T03:52:40.312Z,30.40
2018-03-04T03:53:45.832Z,37.20
2018-03-04T03:54:51.348Z,34.50
2018-03-04T03:55:56.872Z,38.80
2018-03-04T03:57:02.395Z,27.80
2018-03-04T03:58:07.916Z,36.30
2018-03-04T03:59:13.433Z,36.00
2018-03-04T04:00:18.958Z,37.30
2018-03-04T04:01:24.479Z,32.50
2018-03-04T04:02:30.010Z,38.30
2018-03-04T04:03:35.522Z,34.50
2018-03-04T04:04:41.056Z,33.20
2018-03-04T04:05:46.573Z,31.60
2018-03-04T04:06:52.090Z,41.90
2018-03-04T04:07:57.612Z,35.30
2018-03-04T04:09:03.135Z,39.20
2018-03-04T04:10:08.651Z,34.90
2018-03-04T04:11:14.171Z,37.80
2018-03-04T04:12:19.713Z,35.10
2018-03-04T04:13:25.214Z,37.30
2018-03-04T04:14:30.736Z,35.60
2018-03-04T04:15:36.259Z,40.30
2018-03-04T04:16:41.777Z,37.70
2018-03-04T04:17:47.300Z,37.40
2018-03-04T04:18:52.820Z,37.60
2018-03-04T04:19:58.343Z,31.10
2018-03-04T04:21:03.865Z,39.40
2018-03-04T04:22:09.389Z,33.70
2018-03-04T04:23:14.908Z,36.50
2018-03-04T04:24:20.428Z,34.20
2018-03-04T04:25:25.954Z,38.40
2018-03-04T04:26:31.477Z,33.90
2018-03-04T04:27:36.992Z,42.40
2018-03-04T04:28:42.513Z,40.90
2018-03-04T04:29:48.033Z,35.60
2018-03-04T04:30:53.553Z,35.20
2018-03-04T04:31:59.078Z,40.20
2018-03-04T04:33:04.598Z,38.30
2018-03-04T04:34:10.121Z,35.90
2018-03-04T04:35:15.643Z,34.80
2018-03-04T04:36:21.162Z,31.20
2018-03-04T04:37:26.691Z,40.40
2018-03-04T04:38:32.209Z,33.10
2018-03-04T04:39:37.779Z,36.50
2018-03-04T04:40:43.247Z,37.30
2018-03-04T04:41:48.769Z,36.10
2018-03-04T04:42:54.296Z,38.00
2018-03-04T04:43:59.809Z,36.60
2018-03-04T04:45:05.338Z,38.30
2018-03-04T04:46:10.857Z,38.50
2018-03-04T04:47:16.377Z,36.00
2018-03-04T04:48:21.895Z,35.20
2018-03-04T04:49:27.428Z,34.80
2018-03-04T04:50:32.941Z,41.00
2018-03-04T04:51:38.465Z,33.50
2018-03-04T04:52:43.982Z,40.50
2018-03-04T04:53:49.504Z,33.50
2018-03-04T04:54:55.027Z,38.60
2018-03-04T04:56:00.552Z,36.10
2018-03-04T04:57:06.092Z,32.10
2018-03-04T04:58:11.589Z,34.60
2018-03-04T04:59:17.122Z,36.40
2018-03-04T05:00:22.632Z,35.90
2018-03-04T05:01:28.161Z,33.60
2018-03-04T05:02:33.685Z,37.80
2018-03-04T05:03:39.200Z,38.30
2018-03-04T05:04:44.721Z,37.90
2018-03-04T05:05:50.246Z,36.40
2018-03-04T05:06:55.769Z,35.50
2018-03-04T05:08:01.290Z,39.30
2018-03-04T05:09:06.805Z,36.50
2018-03-04T05:10:12.336Z,37.50
2018-03-04T05:11:17.850Z,38.20
2018-03-04T05:12:23.381Z,33.60
2018-03-04T05:13:28.889Z,34.00
2018-03-04T05:14:34.419Z,38.50
2018-03-04T05:15:39.937Z,38.90
2018-03-04T05:16:45.465Z,38.00
2018-03-04T05:17:50.980Z,40.20
2018-03-04T05:18:56.507Z,37.30
2018-03-04T05:20:02.033Z,39.70
2018-03-04T05:21:07.557Z,34.40
2018-03-04T05:22:13.068Z,39.40
2018-03-04T05:23:18.590Z,33.90
2018-03-04T05:24:24.112Z,40.60
2018-03-04T05:25:29.639Z,40.90
2018-03-04T05:26:35.155Z,37.60
2018-03-04T05:27:40.676Z,32.00
2018-03-04T05:28:46.201Z,36.80
2018-03-04T05:29:51.721Z,35.40
2018-03-04T05:30:57.243Z,37.90
2018-03-04T05:32:02.765Z,35.40
2018-03-04T05:33:08.306Z,38.60
2018-03-04T05:34:13.808Z,40.10
2018-03-04T05:35:19.330Z,37.50
2018-03-04T05:36:24.858Z,42.40
2018-03-04T05:37:30.372Z,42.50
2018-03-04T05:38:35.896Z,42.90
2018-03-04T05:39:41.420Z,37.70
2018-03-04T05:40:46.945Z,39.80
2018-03-04T05:41:52.462Z,39.50
2018-03-04T05:42:57.980Z,36.80
2018-03-04T05:44:03.503Z,34.40
2018-03-04T05:45:09.032Z,44.30
2018-03-04T05:46:14.553Z,40.90
2018-03-04T05:47:20.073Z,42.60
2018-03-04T05:48:25.594Z,38.30
2018-03-04T05:49:31.111Z,43.60
2018-03-04T05:50:36.637Z,33.90
2018-03-04T05:51:42.157Z,39.20
2018-03-04T05:52:47.687Z,35.00
2018-03-04T05:53:53.202Z,40.10
2018-03-04T05:54:58.724Z,35.70
2018-03-04T05:56:04.247Z,38.20
2018-03-04T05:57:09.878Z,39.50
2018-03-04T05:58:15.289Z,44.40
2018-03-04T05:59:20.812Z,33.70
2018-03-04T06:00:26.339Z,48.00
2018-03-04T06:01:31.865Z,43.20
2018-03-04T06:02:37.376Z,38.80
2018-03-04T06:03:42.903Z,34.90
2018-03-04T06:04:48.418Z,40.50
2018-03-04T06:05:53.951Z,40.80
2018-03-04T06:06:59.464Z,41.30
2018-03-04T06:08:04.991Z,38.20
2018-03-04T06:09:10.519Z,40.40
2018-03-04T06:10:16.038Z,39.80
2018-03-04T06:11:21.562Z,39.30
2018-03-04T06:12:27.081Z,38.70
2018-03-04T06:13:32.596Z,40.90
2018-03-04T06:14:38.122Z,40.70
2018-03-04T06:15:43.673Z,46.20
2018-03-04T06:16:49.164Z,36.10
2018-03-04T06:17:54.693Z,39.20
2018-03-04T06:19:00.215Z,36.40
2018-03-04T06:20:05.734Z,40.80
2018-03-04T06:21:11.256Z,46.00
2018-03-04T06:22:16.776Z,42.00
2018-03-04T06:23:22.300Z,42.20
2018-03-04T06:24:27.824Z,41.40
2018-03-04T06:25:33.343Z,34.90
2018-03-04T06:26:38.868Z,38.00
2018-03-04T06:27:44.389Z,42.40
2018-03-04T06:28:49.914Z,41.40
2018-03-04T06:29:55.435Z,37.50
2018-03-04T06:31:00.959Z,37.00
2018-03-04T06:32:06.488Z,37.80
2018-03-04T06:33:12.004Z,41.80
2018-03-04T06:34:17.522Z,36.80
2018-03-04T06:35:23.043Z,40.20
2018-03-04T06:36:28.565Z,36.80
2018-03-04T06:37:34.088Z,42.70
2018-03-04T06:38:39.612Z,42.70
2018-03-04T06:39:45.141Z,37.20
2018-03-04T06:40:50.656Z,35.60
2018-03-04T06:41:56.177Z,41.70
2018-03-04T06:43:01.699Z,39.20
2018-03-04T06:44:07.232Z,38.00
2018-03-04T06:45:12.747Z,38.20
2018-03-04T06:46:18.273Z,45.20
2018-03-04T06:47:23.787Z,45.00
2018-03-04T06:48:29.317Z,42.40
2018-03-04T06:49:34.835Z,39.30
2018-03-04T06:50:40.360Z,45.30
2018-03-04T06:51:45.888Z,49.50
2018-03-04T06:52:51.398Z,51.70
2018-03-04T06:53:56.923Z,55.70
2018-03-04T06:55:02.445Z,45.80
2018-03-04T06:56:07.967Z,40.50
2018-03-04T06:57:13.490Z,41.80
2018-03-04T06:58:19.014Z,41.30
2018-03-04T06:59:24.540Z,41.40
2018-03-04T07:00:30.057Z,44.80
2018-03-04T07:01:35.586Z,39.10
2018-03-04T07:02:41.103Z,38.80
2018-03-04T07:03:46.628Z,43.00
2018-03-04T07:04:52.163Z,39.70
2018-03-04T07:05:57.674Z,43.30
2018-03-04T07:07:03.214Z,42.60
2018-03-04T07:08:08.758Z,47.00
2018-03-04T07:09:14.242Z,41.80
2018-03-04T07:10:19.770Z,42.60
2018-03-04T07:11:25.281Z,44.60
2018-03-04T07:12:30.811Z,38.60
2018-03-04T07:13:36.331Z,44.00
2018-03-04T07:14:41.856Z,46.50
2018-03-04T07:15:47.371Z,39.40
2018-03-04T07:16:52.898Z,41.50
2018-03-04T07:17:58.422Z,47.80
2018-03-04T07:19:03.939Z,41.00
2018-03-04T07:20:09.465Z,50.00
2018-03-04T07:21:14.984Z,50.70
2018-03-04T07:22:20.513Z,45.20
2018-03-04T07:23:26.047Z,37.80
2018-03-04T07:24:31.555Z,40.30
2018-03-04T07:25:37.086Z,42.60
2018-03-04T07:26:42.600Z,39.00
2018-03-04T07:27:48.122Z,40.40
2018-03-04T07:28:53.670Z,39.10
2018-03-04T07:29:59.168Z,45.80
2018-03-04T07:31:04.700Z,43.60
2018-03-04T07:32:10.215Z,48.10
2018-03-04T07:33:15.736Z,41.10
2018-03-04T07:34:21.263Z,42.60
2018-03-04T07:35:26.784Z,47.00
2018-03-04T07:36:32.302Z,41.30
2018-03-04T07:37:37.834Z,41.70
2018-03-04T07:38:43.352Z,39.90
2018-03-04T07:39:48.874Z,42.10
2018-03-04T07:40:54.405Z,41.70
2018-03-04T07:41:59.922Z,42.30
2018-03-04T07:43:05.443Z,45.40
2018-03-04T07:44:10.965Z,44.30
2018-03-04T07:45:16.492Z,45.70
2018-03-04T07:46:22.016Z,43.20
2018-03-04T07:47:27.533Z,44.10
2018-03-04T07:48:33.061Z,40.80
2018-03-04T07:49:38.586Z,44.50
2018-03-04T07:50:44.107Z,46.30
2018-03-04T07:51:49.636Z,48.70
2018-03-04T07:52:55.152Z,41.20
2018-03-04T07:54:00.674Z,44.50
2018-03-04T07:55:06.202Z,42.40
2018-03-04T07:56:11.734Z,39.60
2018-03-04T07:57:17.249Z,42.00
2018-03-04T07:58:22.769Z,49.30
2018-03-04T07:59:28.298Z,43.00
2018-03-04T08:00:33.814Z,42.10
2018-03-04T08:01:39.347Z,41.00
2018-03-04T08:02:44.868Z,40.50
2018-03-04T08:03:50.386Z,41.10
2018-03-04T08:04:55.916Z,49.60
2018-03-04T08:06:01.435Z,42.50
2018-03-04T08:07:06.957Z,40.20
2018-03-04T08:08:12.481Z,48.60
2018-03-04T08:09:17.999Z,48.10
2018-03-04T08:10:23.528Z,44.30
2018-03-04T08:11:29.096Z,42.20
2018-03-04T08:12:34.576Z,42.70
2018-03-04T08:13:40.097Z,40.30
2018-03-04T08:14:45.634Z,45.10
2018-03-04T08:15:51.145Z,46.70
2018-03-04T08:16:56.684Z,43.40
2018-03-04T08:18:02.195Z,41.20
2018-03-04T08:19:07.721Z,48.90
2018-03-04T08:20:13.242Z,47.60
2018-03-04T08:21:18.766Z,45.50
2018-03-04T08:22:24.299Z,43.80
2018-03-04T08:23:29.816Z,43.70
2018-03-04T08:24:35.344Z,42.70
2018-03-04T08:25:40.871Z,48.70
2018-03-04T08:26:46.388Z,48.60
2018-03-04T08:27:52.000Z,48.80
2018-03-04T08:28:57.436Z,46.10
2018-03-04T08:30:02.964Z,45.30
2018-03-04T08:31:08.486Z,52.00
2018-03-04T08:32:14.012Z,40.60
2018-03-04T08:33:19.533Z,44.30
2018-03-04T08:34:25.067Z,47.10
2018-03-04T08:35:30.586Z,48.10
2018-03-04T08:36:36.108Z,46.00
2018-03-04T08:37:41.631Z,50.20
2018-03-04T08:38:47.153Z,48.90
2018-03-04T08:39:52.680Z,52.00
2018-03-04T08:40:58.203Z,50.00
2018-03-04T08:42:03.725Z,41.80
2018-03-04T08:43:09.253Z,46.90
2018-03-04T08:44:14.783Z,47.40
2018-03-04T08:45:20.304Z,43.60
2018-03-04T08:46:25.824Z,53.40
2018-03-04T08:47:31.348Z,49.20
2018-03-04T08:48:36.874Z,46.90
2018-03-04T08:49:42.402Z,53.70
2018-03-04T08:50:47.948Z,42.30
2018-03-04T08:51:53.451Z,55.30
2018-03-04T08:52:58.981Z,51.40
2018-03-04T08:54:04.496Z,47.90
2018-03-04T08:55:10.025Z,50.20
2018-03-04T08:56:15.550Z,50.40
2018-03-04T08:57:21.082Z,48.20
2018-03-04T08:58:26.612Z,44.20
2018-03-04T08:59:32.127Z,52.40
2018-03-04T09:00:37.645Z,45.90
2018-03-04T09:01:43.169Z,50.90
2018-03-04T09:02:48.697Z,43.90
2018-03-04T09:03:54.234Z,49.20
2018-03-04T09:04:59.749Z,51.00
2018-03-04T09:06:05.281Z,52.40
2018-03-04T09:07:10.801Z,50.30
2018-03-04T09:08:16.328Z,55.20
2018-03-04T09:09:21.850Z,46.50
2018-03-04T09:10:27.375Z,51.10
2018-03-04T09:11:32.902Z,47.60
2018-03-04T09:12:38.424Z,47.30
2018-03-04T09:13:43.954Z,51.70
2018-03-04T09:14:49.511Z,50.40
2018-03-04T09:15:55.011Z,49.10
2018-03-04T09:17:00.539Z,52.30
2018-03-04T09:18:06.054Z,52.90
2018-03-04T09:19:11.585Z,53.90
2018-03-04T09:20:17.106Z,46.80
2018-03-04T09:21:22.636Z,50.20
2018-03-04T09:22:28.160Z,47.80
2018-03-04T09:23:33.692Z,48.50
2018-03-04T09:24:39.209Z,46.50
2018-03-04T09:25:44.737Z,48.90
2018-03-04T09:26:50.264Z,51.20
2018-03-04T09:27:55.802Z,50.60
2018-03-04T09:29:01.314Z,47.70
2018-03-04T09:30:06.843Z,51.60
2018-03-04T09:31:12.370Z,51.60
2018-03-04T09:32:17.898Z,51.70
2018-03-04T09:33:23.468Z,59.60
2018-03-04T09:34:28.951Z,52.60
2018-03-04T09:35:34.475Z,51.40
2018-03-04T09:36:40.014Z,52.80
2018-03-04T09:37:45.533Z,50.00
2018-03-04T09:38:51.061Z,52.50
2018-03-04T09:39:56.586Z,58.10
2018-03-04T09:41:02.117Z,54.90
2018-03-04T09:42:07.636Z,48.50
2018-03-04T09:43:13.167Z,59.90
2018-03-04T09:44:18.696Z,50.60
2018-03-04T09:45:24.224Z,49.20
2018-03-04T09:46:29.750Z,51.60
2018-03-04T09:47:35.274Z,51.90
2018-03-04T09:48:40.802Z,57.80
2018-03-04T09:49:46.335Z,51.50
2018-03-04T09:50:51.862Z,54.60
2018-03-04T09:51:57.385Z,58.80
2018-03-04T09:53:02.913Z,50.80
2018-03-04T09:54:08.442Z,52.30
2018-03-04T09:55:13.970Z,53.20
2018-03-04T09:56:19.495Z,54.90
2018-03-04T09:57:25.026Z,51.90
2018-03-04T09:58:30.555Z,65.60
2018-03-04T09:59:36.113Z,48.00
2018-03-04T10:00:41.624Z,56.10
2018-03-04T10:01:47.135Z,54.50
2018-03-04T10:02:52.665Z,56.10
2018-03-04T10:03:58.193Z,55.50
2018-03-04T10:05:03.728Z,60.20
2018-03-04T10:06:09.255Z,62.30
2018-03-04T10:07:14.777Z,54.70
2018-03-04T10:08:20.359Z,52.70
2018-03-04T10:09:25.829Z,53.60
2018-03-04T10:10:31.359Z,51.10
2018-03-04T10:11:36.884Z,56.00
2018-03-04T10:12:42.415Z,58.80
2018-03-04T10:13:47.941Z,54.90
2018-03-04T10:14:53.527Z,57.30
2018-03-04T10:15:58.997Z,53.90
2018-03-04T10:17:04.535Z,54.00
2018-03-04T10:18:10.057Z,55.50
2018-03-04T10:19:15.582Z,63.60
2018-03-04T10:20:21.116Z,62.10
2018-03-04T10:21:26.647Z,55.80
2018-03-04T10:22:32.166Z,55.60
2018-03-04T10:23:37.703Z,56.10
2018-03-04T10:24:43.233Z,57.70
2018-03-04T10:25:48.756Z,60.70
2018-03-04T10:26:54.279Z,52.60
2018-03-04T10:27:59.816Z,55.30
2018-03-04T10:29:05.340Z,62.20
2018-03-04T10:30:10.865Z,52.00
2018-03-04T10:31:16.402Z,65.70
2018-03-04T10:32:21.926Z,54.50
2018-03-04T10:33:27.469Z,55.00
2018-03-04T10:34:32.985Z,56.40
2018-03-04T10:35:38.514Z,59.50
2018-03-04T10:36:44.043Z,52.90
2018-03-04T10:37:49.571Z,56.40
2018-03-04T10:38:55.098Z,53.80
2018-03-04T10:40:00.624Z,51.40
2018-03-04T10:41:06.157Z,56.00
2018-03-04T10:42:11.691Z,63.70
2018-03-04T10:43:17.213Z,61.90
2018-03-04T10:44:22.742Z,55.70
2018-03-04T10:45:28.269Z,58.90
2018-03-04T10:46:33.804Z,57.90
2018-03-04T10:47:39.334Z,61.50
2018-03-04T10:48:44.856Z,57.20
2018-03-04T10:49:50.391Z,56.50
2018-03-04T10:50:55.922Z,54.60
2018-03-04T10:52:01.444Z,55.70
2018-03-04T10:53:06.980Z,56.60
2018-03-04T10:54:12.503Z,64.30
2018-03-04T10:55:18.034Z,61.30
2018-03-04T10:56:23.569Z,62.50
2018-03-04T10:57:29.094Z,55.90
2018-03-04T10:58:34.623Z,62.70
2018-03-04T10:59:40.150Z,59.80
2018-03-04T11:00:45.679Z,60.20
2018-03-04T11:01:51.227Z,57.90
2018-03-04T11:02:56.739Z,59.20
2018-03-04T11:04:02.275Z,57.10
2018-03-04T11:05:07.801Z,56.80
2018-03-04T11:06:13.333Z,58.90
2018-03-04T11:07:18.862Z,54.90
2018-03-04T11:08:24.383Z,59.70
2018-03-04T11:09:29.915Z,65.70
2018-03-04T11:10:35.443Z,61.70
2018-03-04T11:11:40.976Z,65.30
2018-03-04T11:12:46.507Z,65.40
2018-03-04T11:13:52.044Z,62.60
2018-03-04T11:14:57.564Z,55.90
2018-03-04T11:16:03.095Z,56.80
2018-03-04T11:17:08.660Z,71.40
2018-03-04T11:18:14.161Z,69.60
2018-03-04T11:19:19.681Z,62.20
2018-03-04T11:20:25.221Z,60.60
2018-03-04T11:21:30.750Z,58.40
2018-03-04T11:22:36.274Z,67.50
2018-03-04T11:23:41.823Z,60.70
2018-03-04T11:24:47.331Z,56.00
2018-03-04T11:25:52.869Z,59.20
2018-03-04T11:26:58.390Z,60.70
2018-03-04T11:28:03.920Z,65.50
2018-03-04T11:29:09.453Z,62.10
2018-03-04T11:30:14.990Z,63.20
2018-03-04T11:31:20.513Z,68.10
2018-03-04T11:32:26.046Z,63.00
2018-03-04T11:33:31.586Z,69.60
2018-03-04T11:34:37.105Z,62.10
2018-03-04T11:35:42.632Z,65.10
2018-03-04T11:36:48.304Z,63.90
2018-03-04T11:37:53.694Z,63.10
2018-03-04T11:38:59.234Z,63.40
2018-03-04T11:40:04.754Z,64.40
2018-03-04T11:41:10.282Z,60.80
2018-03-04T11:42:15.811Z,67.60
2018-03-04T11:43:21.343Z,62.80
2018-03-04T11:44:26.870Z,60.60
2018-03-04T11:45:32.401Z,68.50
2018-03-04T11:46:37.944Z,81.60
2018-03-04T11:47:43.465Z,82.50
2018-03-04T11:48:48.995Z,70.90
2018-03-04T11:49:54.526Z,71.40
2018-03-04T11:51:00.058Z,64.10
2018-03-04T11:52:05.586Z,65.30
2018-03-04T11:53:11.112Z,62.70
2018-03-04T11:54:16.649Z,63.80
2018-03-04T11:55:22.181Z,66.90
2018-03-04T11:56:27.710Z,55.00
2018-03-04T11:57:33.244Z,71.50
2018-03-04T11:58:38.768Z,76.30
2018-03-04T11:59:44.310Z,72.60
2018-03-04T12:00:49.833Z,74.40
2018-03-04T12:01:55.364Z,77.70
2018-03-04T12:03:00.891Z,66.30
2018-03-04T12:04:06.428Z,66.40
2018-03-04T12:05:11.955Z,63.20
2018-03-04T12:06:17.752Z,64.00
2018-03-04T12:07:23.023Z,62.00
2018-03-04T12:08:28.553Z,68.20
2018-03-04T12:09:34.106Z,69.50
2018-03-04T12:10:39.613Z,64.50
2018-03-04T12:11:45.144Z,63.90
2018-03-04T12:12:50.671Z,63.40
2018-03-04T12:13:56.201Z,64.20
2018-03-04T12:15:01.749Z,63.00
2018-03-04T12:16:07.273Z,70.40
2018-03-04T12:17:12.795Z,58.70
2018-03-04T12:18:18.334Z,62.00
2018-03-04T12:19:23.857Z,66.40
2018-03-04T12:20:29.392Z,59.30
2018-03-04T12:21:34.930Z,66.60
2018-03-04T12:22:40.451Z,63.70
2018-03-04T12:23:45.985Z,65.40
2018-03-04T12:24:51.513Z,61.50
2018-03-04T12:25:57.061Z,63.30
2018-03-04T12:27:02.587Z,65.90
2018-03-04T12:28:08.110Z,66.80
2018-03-04T12:29:13.655Z,68.30
2018-03-04T12:30:19.189Z,65.80
2018-03-04T12:31:24.704Z,57.80
2018-03-04T12:32:30.236Z,63.70
2018-03-04T12:33:35.767Z,56.30
2018-03-04T12:34:41.294Z,62.10
2018-03-04T12:35:46.825Z,67.60
2018-03-04T12:36:52.364Z,61.70
2018-03-04T12:37:57.896Z,65.70
2018-03-04T12:39:03.421Z,62.70
2018-03-04T12:40:08.956Z,64.60
2018-03-04T12:41:14.485Z,59.50
2018-03-04T12:42:20.021Z,60.20
2018-03-04T12:43:25.547Z,64.40
2018-03-04T12:44:31.076Z,58.30
2018-03-04T12:45:36.610Z,61.10
2018-03-04T12:46:42.144Z,58.20
2018-03-04T12:47:47.674Z,64.10
2018-03-04T12:48:53.204Z,53.90
2018-03-04T12:49:58.736Z,70.00
2018-03-04T12:51:04.265Z,52.90
2018-03-04T12:52:09.827Z,63.50
2018-03-04T12:53:15.328Z,63.20
2018-03-04T12:54:20.861Z,59.60
2018-03-04T12:55:26.387Z,58.30
2018-03-04T12:56:31.921Z,75.00
2018-03-04T12:57:37.449Z,61.80
2018-03-04T12:58:43.176Z,61.10
2018-03-04T12:59:48.515Z,61.70
2018-03-04T13:00:54.072Z,62.70
2018-03-04T13:01:59.570Z,66.90
2018-03-04T13:03:05.102Z,65.10
2018-03-04T13:04:10.639Z,62.00
2018-03-04T13:05:16.165Z,61.30
2018-03-04T13:06:21.694Z,59.60
2018-03-04T13:07:27.230Z,64.40
2018-03-04T13:08:32.759Z,62.20
2018-03-04T13:09:38.303Z,63.00
2018-03-04T13:10:43.822Z,58.10
2018-03-04T13:11:49.348Z,59.50
2018-03-04T13:12:54.878Z,62.40
2018-03-04T13:14:00.414Z,61.80
2018-03-04T13:15:05.946Z,59.80
2018-03-04T13:16:11.473Z,67.90
2018-03-04T13:17:17.006Z,62.20
2018-03-04T13:18:22.537Z,70.90
2018-03-04T13:19:28.076Z,71.00
2018-03-04T13:20:33.592Z,61.10
2018-03-04T13:21:39.126Z,62.60
2018-03-04T13:22:44.658Z,61.30
2018-03-04T13:23:50.186Z,64.40
2018-03-04T13:24:55.723Z,66.60
2018-03-04T13:26:01.251Z,60.10
2018-03-04T13:27:06.782Z,67.40
2018-03-04T13:28:12.316Z,59.80
2018-03-04T13:29:17.845Z,60.90
2018-03-04T13:30:23.371Z,58.00
2018-03-04T13:31:28.907Z,64.40
2018-03-04T13:32:34.437Z,56.60
2018-03-04T13:33:39.966Z,66.40
2018-03-04T13:34:45.502Z,60.50
2018-03-04T13:35:51.029Z,65.30
2018-03-04T13:36:56.565Z,65.70
2018-03-04T13:38:02.096Z,61.50
2018-03-04T13:39:07.622Z,63.10
2018-03-04T13:40:13.160Z,62.30
2018-03-04T13:41:18.714Z,63.70
2018-03-04T13:42:24.217Z,62.50
2018-03-04T13:43:29.750Z,67.10
2018-03-04T13:44:35.281Z,53.80
2018-03-04T13:45:40.820Z,63.90
2018-03-04T13:46:46.343Z,68.50
2018-03-04T13:47:51.878Z,65.60
2018-03-04T13:48:57.428Z,65.60
2018-03-04T13:50:02.938Z,65.30
2018-03-04T13:51:08.459Z,68.60
2018-03-04T13:52:14.000Z,62.20
2018-03-04T13:53:19.520Z,67.70
2018-03-04T13:54:25.054Z,64.20
2018-03-04T13:55:30.584Z,59.90
2018-03-04T13:56:36.115Z,65.10
2018-03-04T13:57:41.652Z,76.90
2018-03-04T13:58:47.179Z,66.80
2018-03-04T13:59:52.709Z,69.80
2018-03-04T14:00:58.244Z,63.70
2018-03-04T14:02:03.772Z,65.70
2018-03-04T14:03:09.301Z,66.10